sensor_id;sensor_type;location;lat;lon;timestamp;P1;durP1;ratioP1;P2;durP2;ratioP2
24034;SDS011;12242;50.952;4.678;2023-03-05T00:01:23;5.50;;;1.85;;
24034;SDS011;12242;50.952;4.678;2023-03-05T00:03:56;4.78;;;1.20;;
24034;SDS011;12242;50.952;4.678;2023-03-05T00:06:24;3.33;;;1.30;;
24034;SDS011;12242;50.952;4.678;2023-03-05T00:08:53;4.15;;;1.45;;
24034;SDS011;12242;50.952;4.678;2023-03-05T00:11:23;4.43;;;2.17;;
24034;SDS011;12242;50.952;4.678;2023-03-05T00:13:54;5.13;;;2.35;;
24034;SDS011;12242;50.952;4.678;2023-03-05T00:16:22;6.38;;;1.80;;
24034;SDS011;12242;50.952;4.678;2023-03-05T00:18:53;9.70;;;3.13;;
24034;SDS011;12242;50.952;4.678;2023-03-05T00:21:23;5.20;;;2.17;;
24034;SDS011;12242;50.952;4.678;2023-03-05T00:23:56;7.68;;;3.20;;
24034;SDS011;12242;50.952;4.678;2023-03-05T00:26:27;4.13;;;1.65;;
24034;SDS011;12242;50.952;4.678;2023-03-05T00:28:56;5.45;;;1.55;;
24034;SDS011;12242;50.952;4.678;2023-03-05T00:31:25;6.78;;;1.63;;
24034;SDS011;12242;50.952;4.678;2023-03-05T00:33:59;10.40;;;1.95;;
24034;SDS011;12242;50.952;4.678;2023-03-05T00:36:37;7.90;;;2.00;;
24034;SDS011;12242;50.952;4.678;2023-03-05T00:39:10;3.65;;;1.50;;
24034;SDS011;12242;50.952;4.678;2023-03-05T00:41:38;8.35;;;1.55;;
24034;SDS011;12242;50.952;4.678;2023-03-05T00:44:06;4.70;;;2.47;;
24034;SDS011;12242;50.952;4.678;2023-03-05T00:46:34;16.50;;;4.72;;
24034;SDS011;12242;50.952;4.678;2023-03-05T00:49:02;9.55;;;4.45;;
24034;SDS011;12242;50.952;4.678;2023-03-05T00:51:30;12.73;;;5.97;;
24034;SDS011;12242;50.952;4.678;2023-03-05T00:53:58;17.65;;;7.97;;
24034;SDS011;12242;50.952;4.678;2023-03-05T00:56:25;14.20;;;8.63;;
24034;SDS011;12242;50.952;4.678;2023-03-05T00:58:53;14.45;;;6.95;;
24034;SDS011;12242;50.952;4.678;2023-03-05T01:01:21;11.55;;;5.22;;
24034;SDS011;12242;50.952;4.678;2023-03-05T01:03:50;14.38;;;7.07;;
24034;SDS011;12242;50.952;4.678;2023-03-05T01:06:17;17.98;;;9.18;;
24034;SDS011;12242;50.952;4.678;2023-03-05T01:08:46;10.95;;;5.68;;
24034;SDS011;12242;50.952;4.678;2023-03-05T01:11:13;8.70;;;4.00;;
24034;SDS011;12242;50.952;4.678;2023-03-05T01:13:41;16.02;;;7.78;;
24034;SDS011;12242;50.952;4.678;2023-03-05T01:16:08;15.85;;;9.43;;
24034;SDS011;12242;50.952;4.678;2023-03-05T01:18:36;17.95;;;9.85;;
24034;SDS011;12242;50.952;4.678;2023-03-05T01:21:06;15.10;;;6.88;;
24034;SDS011;12242;50.952;4.678;2023-03-05T01:23:34;14.10;;;8.48;;
24034;SDS011;12242;50.952;4.678;2023-03-05T01:26:03;16.58;;;8.20;;
24034;SDS011;12242;50.952;4.678;2023-03-05T01:28:31;22.45;;;12.70;;
24034;SDS011;12242;50.952;4.678;2023-03-05T01:30:59;11.07;;;5.20;;
24034;SDS011;12242;50.952;4.678;2023-03-05T01:33:27;15.85;;;7.20;;
24034;SDS011;12242;50.952;4.678;2023-03-05T01:35:54;12.95;;;6.78;;
24034;SDS011;12242;50.952;4.678;2023-03-05T01:38:22;7.63;;;3.72;;
24034;SDS011;12242;50.952;4.678;2023-03-05T01:40:50;11.40;;;5.07;;
24034;SDS011;12242;50.952;4.678;2023-03-05T01:43:21;9.00;;;4.20;;
24034;SDS011;12242;50.952;4.678;2023-03-05T01:51:52;9.10;;;3.95;;
24034;SDS011;12242;50.952;4.678;2023-03-05T01:54:30;20.30;;;12.40;;
24034;SDS011;12242;50.952;4.678;2023-03-05T01:57:01;22.02;;;7.63;;
24034;SDS011;12242;50.952;4.678;2023-03-05T01:59:34;25.00;;;14.00;;
24034;SDS011;12242;50.952;4.678;2023-03-05T02:02:04;19.65;;;10.88;;
24034;SDS011;12242;50.952;4.678;2023-03-05T02:04:40;10.32;;;3.90;;
24034;SDS011;12242;50.952;4.678;2023-03-05T02:07:12;15.55;;;4.68;;
24034;SDS011;12242;50.952;4.678;2023-03-05T02:09:41;12.77;;;6.75;;
24034;SDS011;12242;50.952;4.678;2023-03-05T02:12:09;12.95;;;6.93;;
24034;SDS011;12242;50.952;4.678;2023-03-05T02:14:38;8.55;;;3.25;;
24034;SDS011;12242;50.952;4.678;2023-03-05T02:17:09;18.30;;;8.88;;
24034;SDS011;12242;50.952;4.678;2023-03-05T02:19:51;14.27;;;8.15;;
24034;SDS011;12242;50.952;4.678;2023-03-05T02:22:21;12.48;;;6.90;;
24034;SDS011;12242;50.952;4.678;2023-03-05T02:24:50;10.60;;;4.57;;
24034;SDS011;12242;50.952;4.678;2023-03-05T02:27:19;17.85;;;9.55;;
24034;SDS011;12242;50.952;4.678;2023-03-05T02:29:49;11.65;;;4.60;;
24034;SDS011;12242;50.952;4.678;2023-03-05T02:32:17;10.13;;;2.80;;
24034;SDS011;12242;50.952;4.678;2023-03-05T02:34:45;10.23;;;3.17;;
24034;SDS011;12242;50.952;4.678;2023-03-05T02:37:12;15.68;;;7.88;;
24034;SDS011;12242;50.952;4.678;2023-03-05T02:39:40;11.93;;;5.28;;
24034;SDS011;12242;50.952;4.678;2023-03-05T02:42:08;9.25;;;4.03;;
24034;SDS011;12242;50.952;4.678;2023-03-05T02:44:36;11.50;;;4.28;;
24034;SDS011;12242;50.952;4.678;2023-03-05T02:47:03;7.72;;;3.40;;
24034;SDS011;12242;50.952;4.678;2023-03-05T02:49:31;9.25;;;4.47;;
24034;SDS011;12242;50.952;4.678;2023-03-05T02:51:59;8.48;;;3.17;;
24034;SDS011;12242;50.952;4.678;2023-03-05T02:54:26;8.07;;;3.92;;
24034;SDS011;12242;50.952;4.678;2023-03-05T02:56:54;7.55;;;2.83;;
24034;SDS011;12242;50.952;4.678;2023-03-05T02:59:21;10.43;;;3.22;;
24034;SDS011;12242;50.952;4.678;2023-03-05T03:01:49;10.88;;;3.47;;
24034;SDS011;12242;50.952;4.678;2023-03-05T03:04:16;9.13;;;3.55;;
24034;SDS011;12242;50.952;4.678;2023-03-05T03:06:44;10.15;;;3.42;;
24034;SDS011;12242;50.952;4.678;2023-03-05T03:09:11;10.27;;;3.05;;
24034;SDS011;12242;50.952;4.678;2023-03-05T03:11:39;9.38;;;4.18;;
24034;SDS011;12242;50.952;4.678;2023-03-05T03:14:06;14.88;;;5.88;;
24034;SDS011;12242;50.952;4.678;2023-03-05T03:16:34;11.13;;;5.05;;
24034;SDS011;12242;50.952;4.678;2023-03-05T03:19:02;14.68;;;4.90;;
24034;SDS011;12242;50.952;4.678;2023-03-05T03:21:30;12.98;;;5.78;;
24034;SDS011;12242;50.952;4.678;2023-03-05T03:23:57;9.60;;;5.30;;
24034;SDS011;12242;50.952;4.678;2023-03-05T03:26:25;9.77;;;3.60;;
24034;SDS011;12242;50.952;4.678;2023-03-05T03:28:53;9.00;;;3.50;;
24034;SDS011;12242;50.952;4.678;2023-03-05T03:31:20;10.45;;;5.32;;
24034;SDS011;12242;50.952;4.678;2023-03-05T03:33:51;9.00;;;3.63;;
24034;SDS011;12242;50.952;4.678;2023-03-05T03:36:18;9.63;;;3.60;;
24034;SDS011;12242;50.952;4.678;2023-03-05T03:38:46;8.35;;;3.85;;
24034;SDS011;12242;50.952;4.678;2023-03-05T03:41:13;11.80;;;4.55;;
24034;SDS011;12242;50.952;4.678;2023-03-05T03:43:41;10.15;;;3.75;;
24034;SDS011;12242;50.952;4.678;2023-03-05T03:46:08;13.82;;;4.55;;
24034;SDS011;12242;50.952;4.678;2023-03-05T03:48:36;11.50;;;3.53;;
24034;SDS011;12242;50.952;4.678;2023-03-05T03:51:04;10.55;;;3.10;;
24034;SDS011;12242;50.952;4.678;2023-03-05T03:53:33;10.07;;;3.47;;
24034;SDS011;12242;50.952;4.678;2023-03-05T03:56:01;11.50;;;3.42;;
24034;SDS011;12242;50.952;4.678;2023-03-05T03:58:29;7.32;;;3.40;;
24034;SDS011;12242;50.952;4.678;2023-03-05T04:00:57;10.80;;;2.97;;
24034;SDS011;12242;50.952;4.678;2023-03-05T04:03:24;8.88;;;3.03;;
24034;SDS011;12242;50.952;4.678;2023-03-05T04:05:52;8.43;;;3.15;;
24034;SDS011;12242;50.952;4.678;2023-03-05T04:08:20;6.57;;;2.75;;
24034;SDS011;12242;50.952;4.678;2023-03-05T04:10:47;8.30;;;3.63;;
24034;SDS011;12242;50.952;4.678;2023-03-05T04:13:15;8.43;;;3.28;;
24034;SDS011;12242;50.952;4.678;2023-03-05T04:15:42;7.30;;;3.17;;
24034;SDS011;12242;50.952;4.678;2023-03-05T04:18:10;8.73;;;3.90;;
24034;SDS011;12242;50.952;4.678;2023-03-05T04:20:38;8.23;;;3.30;;
24034;SDS011;12242;50.952;4.678;2023-03-05T04:23:05;7.65;;;3.38;;
24034;SDS011;12242;50.952;4.678;2023-03-05T04:25:33;7.68;;;3.20;;
24034;SDS011;12242;50.952;4.678;2023-03-05T04:28:00;7.63;;;3.30;;
24034;SDS011;12242;50.952;4.678;2023-03-05T04:30:28;10.50;;;3.25;;
24034;SDS011;12242;50.952;4.678;2023-03-05T04:32:57;9.68;;;3.85;;
24034;SDS011;12242;50.952;4.678;2023-03-05T04:35:24;7.50;;;3.25;;
24034;SDS011;12242;50.952;4.678;2023-03-05T04:37:52;8.80;;;3.03;;
24034;SDS011;12242;50.952;4.678;2023-03-05T04:40:20;9.30;;;2.90;;
24034;SDS011;12242;50.952;4.678;2023-03-05T04:42:47;8.98;;;3.35;;
24034;SDS011;12242;50.952;4.678;2023-03-05T04:45:15;15.40;;;5.00;;
24034;SDS011;12242;50.952;4.678;2023-03-05T04:47:43;11.25;;;3.78;;
24034;SDS011;12242;50.952;4.678;2023-03-05T04:50:10;7.25;;;3.33;;
24034;SDS011;12242;50.952;4.678;2023-03-05T04:52:39;6.93;;;2.90;;
24034;SDS011;12242;50.952;4.678;2023-03-05T04:55:08;8.65;;;3.03;;
24034;SDS011;12242;50.952;4.678;2023-03-05T04:57:37;9.15;;;2.95;;
24034;SDS011;12242;50.952;4.678;2023-03-05T05:00:06;10.30;;;3.00;;
24034;SDS011;12242;50.952;4.678;2023-03-05T05:02:40;8.10;;;2.92;;
24034;SDS011;12242;50.952;4.678;2023-03-05T05:05:11;6.95;;;2.67;;
24034;SDS011;12242;50.952;4.678;2023-03-05T05:07:40;11.00;;;3.33;;
24034;SDS011;12242;50.952;4.678;2023-03-05T05:10:08;7.43;;;3.10;;
24034;SDS011;12242;50.952;4.678;2023-03-05T05:12:37;6.43;;;2.85;;
24034;SDS011;12242;50.952;4.678;2023-03-05T05:15:05;6.60;;;2.63;;
24034;SDS011;12242;50.952;4.678;2023-03-05T05:17:34;9.98;;;3.15;;
24034;SDS011;12242;50.952;4.678;2023-03-05T05:20:03;9.60;;;2.80;;
24034;SDS011;12242;50.952;4.678;2023-03-05T05:22:36;11.70;;;3.72;;
24034;SDS011;12242;50.952;4.678;2023-03-05T05:25:04;7.43;;;3.00;;
24034;SDS011;12242;50.952;4.678;2023-03-05T05:27:32;9.20;;;2.88;;
24034;SDS011;12242;50.952;4.678;2023-03-05T05:29:59;7.72;;;3.10;;
24034;SDS011;12242;50.952;4.678;2023-03-05T05:32:27;10.48;;;3.25;;
24034;SDS011;12242;50.952;4.678;2023-03-05T05:34:55;8.07;;;3.40;;
24034;SDS011;12242;50.952;4.678;2023-03-05T05:37:24;9.65;;;3.15;;
24034;SDS011;12242;50.952;4.678;2023-03-05T05:39:52;8.45;;;2.85;;
24034;SDS011;12242;50.952;4.678;2023-03-05T05:42:20;10.30;;;2.95;;
24034;SDS011;12242;50.952;4.678;2023-03-05T05:44:49;8.63;;;3.10;;
24034;SDS011;12242;50.952;4.678;2023-03-05T05:47:17;9.63;;;3.17;;
24034;SDS011;12242;50.952;4.678;2023-03-05T05:49:44;10.45;;;3.28;;
24034;SDS011;12242;50.952;4.678;2023-03-05T05:52:12;8.68;;;3.25;;
24034;SDS011;12242;50.952;4.678;2023-03-05T05:54:40;11.23;;;3.58;;
24034;SDS011;12242;50.952;4.678;2023-03-05T05:57:07;11.88;;;3.25;;
24034;SDS011;12242;50.952;4.678;2023-03-05T05:59:35;7.53;;;3.10;;
24034;SDS011;12242;50.952;4.678;2023-03-05T06:02:04;9.27;;;3.47;;
24034;SDS011;12242;50.952;4.678;2023-03-05T06:04:34;11.98;;;3.80;;
24034;SDS011;12242;50.952;4.678;2023-03-05T06:07:22;11.05;;;3.75;;
24034;SDS011;12242;50.952;4.678;2023-03-05T06:09:50;9.07;;;4.22;;
24034;SDS011;12242;50.952;4.678;2023-03-05T06:12:17;9.77;;;4.20;;
24034;SDS011;12242;50.952;4.678;2023-03-05T06:14:45;8.30;;;3.85;;
24034;SDS011;12242;50.952;4.678;2023-03-05T06:17:12;9.93;;;4.03;;
24034;SDS011;12242;50.952;4.678;2023-03-05T06:19:53;10.98;;;4.05;;
24034;SDS011;12242;50.952;4.678;2023-03-05T06:22:21;8.30;;;3.38;;
24034;SDS011;12242;50.952;4.678;2023-03-05T06:24:48;11.27;;;3.80;;
24034;SDS011;12242;50.952;4.678;2023-03-05T06:27:16;11.45;;;3.78;;
24034;SDS011;12242;50.952;4.678;2023-03-05T06:29:44;13.25;;;4.43;;
24034;SDS011;12242;50.952;4.678;2023-03-05T06:32:11;8.65;;;3.83;;
24034;SDS011;12242;50.952;4.678;2023-03-05T06:34:39;10.88;;;4.28;;
24034;SDS011;12242;50.952;4.678;2023-03-05T06:37:06;9.90;;;3.53;;
24034;SDS011;12242;50.952;4.678;2023-03-05T06:39:34;9.25;;;4.07;;
24034;SDS011;12242;50.952;4.678;2023-03-05T06:42:01;10.77;;;4.25;;
24034;SDS011;12242;50.952;4.678;2023-03-05T06:44:29;8.55;;;4.18;;
24034;SDS011;12242;50.952;4.678;2023-03-05T06:46:56;14.18;;;4.32;;
24034;SDS011;12242;50.952;4.678;2023-03-05T06:49:24;10.90;;;4.40;;
24034;SDS011;12242;50.952;4.678;2023-03-05T06:51:51;11.40;;;4.10;;
24034;SDS011;12242;50.952;4.678;2023-03-05T06:54:19;11.80;;;4.43;;
24034;SDS011;12242;50.952;4.678;2023-03-05T06:56:46;9.77;;;3.90;;
24034;SDS011;12242;50.952;4.678;2023-03-05T06:59:15;15.00;;;4.38;;
24034;SDS011;12242;50.952;4.678;2023-03-05T07:01:43;10.48;;;4.18;;
24034;SDS011;12242;50.952;4.678;2023-03-05T07:04:11;7.68;;;3.70;;
24034;SDS011;12242;50.952;4.678;2023-03-05T07:06:40;9.75;;;3.67;;
24034;SDS011;12242;50.952;4.678;2023-03-05T07:09:09;10.10;;;3.70;;
24034;SDS011;12242;50.952;4.678;2023-03-05T07:11:39;11.35;;;4.18;;
24034;SDS011;12242;50.952;4.678;2023-03-05T07:14:08;12.05;;;3.95;;
24034;SDS011;12242;50.952;4.678;2023-03-05T07:16:35;10.02;;;4.25;;
24034;SDS011;12242;50.952;4.678;2023-03-05T07:19:03;8.35;;;4.05;;
24034;SDS011;12242;50.952;4.678;2023-03-05T07:21:33;9.93;;;4.43;;
24034;SDS011;12242;50.952;4.678;2023-03-05T07:24:05;8.68;;;3.78;;
24034;SDS011;12242;50.952;4.678;2023-03-05T07:26:34;8.30;;;3.67;;
24034;SDS011;12242;50.952;4.678;2023-03-05T07:29:02;13.82;;;4.32;;
24034;SDS011;12242;50.952;4.678;2023-03-05T07:31:29;8.63;;;3.45;;
24034;SDS011;12242;50.952;4.678;2023-03-05T07:33:59;10.30;;;3.75;;
24034;SDS011;12242;50.952;4.678;2023-03-05T07:36:27;7.47;;;3.50;;
24034;SDS011;12242;50.952;4.678;2023-03-05T07:38:56;14.00;;;3.72;;
24034;SDS011;12242;50.952;4.678;2023-03-05T07:41:23;10.07;;;3.92;;
24034;SDS011;12242;50.952;4.678;2023-03-05T07:43:51;10.85;;;3.97;;
24034;SDS011;12242;50.952;4.678;2023-03-05T07:46:21;9.48;;;4.18;;
24034;SDS011;12242;50.952;4.678;2023-03-05T07:48:51;11.23;;;3.67;;
24034;SDS011;12242;50.952;4.678;2023-03-05T07:51:22;11.27;;;3.58;;
24034;SDS011;12242;50.952;4.678;2023-03-05T07:53:51;9.77;;;3.20;;
24034;SDS011;12242;50.952;4.678;2023-03-05T07:56:25;6.20;;;2.85;;
24034;SDS011;12242;50.952;4.678;2023-03-05T07:59:03;8.88;;;3.45;;
24034;SDS011;12242;50.952;4.678;2023-03-05T08:01:32;9.93;;;3.00;;
24034;SDS011;12242;50.952;4.678;2023-03-05T08:04:01;7.50;;;2.88;;
24034;SDS011;12242;50.952;4.678;2023-03-05T08:06:29;6.93;;;2.60;;
24034;SDS011;12242;50.952;4.678;2023-03-05T08:08:57;6.82;;;2.45;;
24034;SDS011;12242;50.952;4.678;2023-03-05T08:11:25;8.13;;;2.85;;
24034;SDS011;12242;50.952;4.678;2023-03-05T08:13:54;8.75;;;3.20;;
24034;SDS011;12242;50.952;4.678;2023-03-05T08:16:25;5.85;;;2.58;;
24034;SDS011;12242;50.952;4.678;2023-03-05T08:18:53;8.90;;;3.00;;
24034;SDS011;12242;50.952;4.678;2023-03-05T08:21:24;9.25;;;2.90;;
24034;SDS011;12242;50.952;4.678;2023-03-05T08:23:56;9.65;;;3.15;;
24034;SDS011;12242;50.952;4.678;2023-03-05T08:26:25;7.95;;;2.90;;
24034;SDS011;12242;50.952;4.678;2023-03-05T08:28:54;9.13;;;2.90;;
24034;SDS011;12242;50.952;4.678;2023-03-05T08:31:22;6.47;;;2.60;;
24034;SDS011;12242;50.952;4.678;2023-03-05T08:33:52;7.10;;;2.97;;
24034;SDS011;12242;50.952;4.678;2023-03-05T08:36:21;5.30;;;2.08;;
24034;SDS011;12242;50.952;4.678;2023-03-05T08:38:49;8.20;;;2.55;;
24034;SDS011;12242;50.952;4.678;2023-03-05T08:41:17;5.93;;;2.33;;
24034;SDS011;12242;50.952;4.678;2023-03-05T08:43:45;6.47;;;2.65;;
24034;SDS011;12242;50.952;4.678;2023-03-05T08:46:13;4.97;;;2.30;;
24034;SDS011;12242;50.952;4.678;2023-03-05T08:48:41;6.10;;;1.90;;
24034;SDS011;12242;50.952;4.678;2023-03-05T08:51:10;7.50;;;2.13;;
24034;SDS011;12242;50.952;4.678;2023-03-05T08:53:43;5.10;;;2.17;;
24034;SDS011;12242;50.952;4.678;2023-03-05T08:56:12;7.40;;;2.33;;
24034;SDS011;12242;50.952;4.678;2023-03-05T08:58:41;5.38;;;2.25;;
24034;SDS011;12242;50.952;4.678;2023-03-05T09:01:09;7.75;;;2.50;;
24034;SDS011;12242;50.952;4.678;2023-03-05T09:03:37;7.05;;;2.90;;
24034;SDS011;12242;50.952;4.678;2023-03-05T09:06:07;7.05;;;3.33;;
24034;SDS011;12242;50.952;4.678;2023-03-05T09:08:38;6.72;;;3.60;;
24034;SDS011;12242;50.952;4.678;2023-03-05T09:11:06;8.63;;;4.15;;
24034;SDS011;12242;50.952;4.678;2023-03-05T09:13:35;7.32;;;3.67;;
24034;SDS011;12242;50.952;4.678;2023-03-05T09:16:04;7.97;;;3.05;;
24034;SDS011;12242;50.952;4.678;2023-03-05T09:18:34;7.80;;;3.70;;
24034;SDS011;12242;50.952;4.678;2023-03-05T09:21:03;7.20;;;3.35;;
24034;SDS011;12242;50.952;4.678;2023-03-05T09:23:32;7.13;;;3.17;;
24034;SDS011;12242;50.952;4.678;2023-03-05T09:25:59;8.20;;;3.80;;
24034;SDS011;12242;50.952;4.678;2023-03-05T09:28:27;6.65;;;3.10;;
24034;SDS011;12242;50.952;4.678;2023-03-05T09:30:54;8.10;;;3.22;;
24034;SDS011;12242;50.952;4.678;2023-03-05T09:33:22;10.98;;;4.15;;
24034;SDS011;12242;50.952;4.678;2023-03-05T09:35:49;10.13;;;4.22;;
24034;SDS011;12242;50.952;4.678;2023-03-05T09:38:17;9.57;;;3.95;;
24034;SDS011;12242;50.952;4.678;2023-03-05T09:40:48;11.52;;;4.20;;
24034;SDS011;12242;50.952;4.678;2023-03-05T09:51:40;8.30;;;2.90;;
24034;SDS011;12242;50.952;4.678;2023-03-05T09:54:13;7.68;;;3.70;;
24034;SDS011;12242;50.952;4.678;2023-03-05T09:56:55;7.63;;;2.92;;
24034;SDS011;12242;50.952;4.678;2023-03-05T10:02:04;5.30;;;2.50;;
24034;SDS011;12242;50.952;4.678;2023-03-05T10:04:47;10.52;;;3.05;;
24034;SDS011;12242;50.952;4.678;2023-03-05T10:07:30;6.07;;;2.22;;
24034;SDS011;12242;50.952;4.678;2023-03-05T10:10:04;7.03;;;2.53;;
24034;SDS011;12242;50.952;4.678;2023-03-05T10:12:42;6.20;;;1.80;;
24034;SDS011;12242;50.952;4.678;2023-03-05T10:15:30;5.18;;;2.33;;
24034;SDS011;12242;50.952;4.678;2023-03-05T10:18:26;5.47;;;2.80;;
24034;SDS011;12242;50.952;4.678;2023-03-05T10:26:34;7.97;;;3.33;;
24034;SDS011;12242;50.952;4.678;2023-03-05T10:32:14;2.38;;;1.20;;
24034;SDS011;12242;50.952;4.678;2023-03-05T10:46:00;1.92;;;1.00;;
24034;SDS011;12242;50.952;4.678;2023-03-05T10:51:08;3.05;;;1.30;;
24034;SDS011;12242;50.952;4.678;2023-03-05T10:53:55;2.80;;;1.27;;
24034;SDS011;12242;50.952;4.678;2023-03-05T10:56:26;1.98;;;1.00;;
24034;SDS011;12242;50.952;4.678;2023-03-05T10:58:55;2.95;;;1.02;;
24034;SDS011;12242;50.952;4.678;2023-03-05T11:01:23;2.63;;;1.08;;
24034;SDS011;12242;50.952;4.678;2023-03-05T11:03:55;3.05;;;1.38;;
24034;SDS011;12242;50.952;4.678;2023-03-05T11:12:03;2.58;;;1.20;;
24034;SDS011;12242;50.952;4.678;2023-03-05T11:14:39;4.65;;;1.30;;
24034;SDS011;12242;50.952;4.678;2023-03-05T11:28:37;8.20;;;1.23;;
24034;SDS011;12242;50.952;4.678;2023-03-05T11:37:00;3.83;;;0.90;;
24034;SDS011;12242;50.952;4.678;2023-03-05T11:39:20;1.48;;;0.80;;
24034;SDS011;12242;50.952;4.678;2023-03-05T11:41:50;2.45;;;0.90;;
24034;SDS011;12242;50.952;4.678;2023-03-05T11:44:20;1.67;;;0.73;;
24034;SDS011;12242;50.952;4.678;2023-03-05T11:47:01;4.03;;;1.20;;
24034;SDS011;12242;50.952;4.678;2023-03-05T11:49:49;2.58;;;1.00;;
24034;SDS011;12242;50.952;4.678;2023-03-05T11:52:23;2.90;;;1.10;;
24034;SDS011;12242;50.952;4.678;2023-03-05T11:55:06;1.52;;;0.70;;
24034;SDS011;12242;50.952;4.678;2023-03-05T11:57:56;2.90;;;0.80;;
24034;SDS011;12242;50.952;4.678;2023-03-05T12:00:49;2.78;;;0.70;;
24034;SDS011;12242;50.952;4.678;2023-03-05T12:03:29;2.72;;;0.60;;
24034;SDS011;12242;50.952;4.678;2023-03-05T12:08:33;1.02;;;0.50;;
24034;SDS011;12242;50.952;4.678;2023-03-05T12:11:26;2.58;;;0.70;;
24034;SDS011;12242;50.952;4.678;2023-03-05T12:17:06;2.28;;;0.88;;
24034;SDS011;12242;50.952;4.678;2023-03-05T12:20:01;1.63;;;0.47;;
24034;SDS011;12242;50.952;4.678;2023-03-05T12:22:38;2.60;;;0.70;;
24034;SDS011;12242;50.952;4.678;2023-03-05T12:28:54;2.38;;;0.90;;
24034;SDS011;12242;50.952;4.678;2023-03-05T12:31:03;1.08;;;0.63;;
24034;SDS011;12242;50.952;4.678;2023-03-05T12:33:35;2.30;;;0.80;;
24034;SDS011;12242;50.952;4.678;2023-03-05T12:38:47;3.28;;;0.60;;
24034;SDS011;12242;50.952;4.678;2023-03-05T12:46:35;2.90;;;0.90;;
24034;SDS011;12242;50.952;4.678;2023-03-05T12:51:49;2.90;;;1.05;;
24034;SDS011;12242;50.952;4.678;2023-03-05T12:56:46;2.97;;;1.15;;
24034;SDS011;12242;50.952;4.678;2023-03-05T12:59:14;3.03;;;1.10;;
24034;SDS011;12242;50.952;4.678;2023-03-05T13:01:49;3.45;;;1.20;;
24034;SDS011;12242;50.952;4.678;2023-03-05T13:04:22;3.17;;;1.15;;
24034;SDS011;12242;50.952;4.678;2023-03-05T13:07:01;3.53;;;1.08;;
24034;SDS011;12242;50.952;4.678;2023-03-05T13:09:31;3.20;;;1.15;;
24034;SDS011;12242;50.952;4.678;2023-03-05T13:12:02;3.78;;;1.30;;
24034;SDS011;12242;50.952;4.678;2023-03-05T13:14:40;3.08;;;1.42;;
